Akron, Indiana
Current Conditions -  °F | °C
As of 4:35 PM on Thursday 18 Dec 2014 (Local Time) from KRCR Reporting Station
Broken Clouds Broken Clouds  
Wind Chill: 30°   Ceiling: 1700
Heat Index: 30°   Visibility: 10mi
Dew Point: 23°   Wind: 3mph
Humidity: 75%   Direction: 260°W
Pressure: 30.22"   Gusts: NA
Location:  41.04°N, 86.03°W
Report Text: KRCR 182135Z AUTO 26003KT 10SM BKN017 M01/M05 A3022 RMK AO2
Loading
Personal Weather Stations






























Interactive Weather Map New forecast layout! Learn more

10-Day Weather Forecast

Advertisements
Track Severe Weather on mobile